Latest Weather Observations for Coen Airport

IDQ60801

Issued at 11:42 pm EST Friday 16 November 2018 (issued every 10 minutes, with the page automatically refreshed every 10 minutes)

About weather observations | Map of weather stations | Latest weather observations for QLD | Other Formats
Station Details ID: 027073 Name: COEN AIRPORT Lat: -13.76 Lon: 143.12 Height: 159.3 m
Data from the previous 72 hours. | See also: Recent months at Coen Airport
Date/Time
EST
Temp
°C
App
Temp
°C
Dew
Point
°C
Rel
Hum
%
Delta-T
°C
Wind Press
QNH
hPa
Press
MSL
hPa
Rain since
9am
mm
Dir  Spd
km/h
Gust
km/h
Spd
kts
Gust
kts
16/11:30pm 25.0 25.6 18.7 68 4.0 ENE 13 20 7 11 1012.3 1011.2 0.0
16/11:00pm 25.0 25.7 18.9 69 3.9 ENE 13 19 7 10 1012.6 1011.5 0.0
16/10:30pm 25.0 26.3 19.4 71 3.6 ENE 11 19 6 10 1012.7 1011.6 0.0
16/10:00pm 25.0 26.0 19.4 71 3.6 ENE 13 22 7 12 1012.3 1011.2 0.0
16/09:30pm 25.1 26.1 19.5 71 3.6 ENE 13 20 7 11 1012.2 1011.1 0.0
16/09:00pm 25.2 25.5 19.6 71 3.6 ENE 17 24 9 13 1012.0 1010.9 0.0
16/08:30pm 25.4 25.3 19.5 70 3.8 ENE 19 33 10 18 1011.7 1010.6 0.0
16/08:00pm 25.6 24.5 19.5 69 4.0 ENE 24 39 13 21 1011.3 1010.2 0.0
16/07:30pm 26.1 25.3 18.5 63 4.9 ENE 20 35 11 19 1011.0 1009.9 0.0
16/07:00pm 26.8 25.6 17.0 55 6.2 ENE 19 32 10 17 1011.1 1010.0 0.0
16/06:30pm 27.7 26.5 16.0 49 7.2 ENE 17 28 9 15 1010.9 1009.8 0.0
16/06:00pm 29.1 27.3 14.5 41 8.9 ENE 17 28 9 15 1010.3 1009.3 0.0
16/05:30pm 29.9 27.7 14.8 39 9.3 NE 20 35 11 19 1010.0 1008.9 0.0
16/05:00pm 30.8 27.9 14.0 36 10.2 ENE 22 33 12 18 1009.5 1008.4 0.0
16/04:30pm 31.5 28.1 13.7 33 10.8 ENE 24 37 13 20 1009.2 1008.1 0.0
16/04:00pm 32.4 29.4 13.6 32 11.4 ENE 22 39 12 21 1009.1 1008.0 0.0
16/03:30pm 33.2 30.1 13.3 30 12.1 E 22 43 12 23 1009.2 1008.1 0.0
16/03:00pm 33.4 29.8 12.9 28 12.4 E 24 37 13 20 1009.7 1008.6 0.0
16/02:30pm 33.5 29.9 13.0 29 12.4 ESE 24 41 13 22 1010.1 1009.0 0.0
16/02:00pm 33.2 28.9 12.2 28 12.6 ESE 26 37 14 20 1010.4 1009.4 0.0
16/01:30pm 32.5 29.5 13.7 32 11.5 E 22 39 12 21 1010.8 1009.7 0.0
16/01:00pm 32.6 29.8 14.2 32 11.3 ENE 22 35 12 19 1011.4 1010.3 0.0
16/12:30pm 32.5 30.2 14.6 34 11.0 E 20 43 11 23 1012.0 1010.9 0.0
16/12:00pm 32.6 30.6 13.8 32 11.5 ENE 17 30 9 16 1012.5 1011.4 0.0
16/11:30am 32.1 30.0 14.7 35 10.7 ENE 19 35 10 19 1013.0 1011.9 0.0
16/11:00am 32.2 30.5 15.7 37 10.3 E 19 37 10 20 1013.3 1012.2 0.0
16/10:30am 31.7 29.2 15.2 36 10.2 ENE 22 35 12 19 1013.8 1012.7 0.0
16/10:00am 30.4 28.0 14.5 38 9.7 E 20 35 11 19 1014.0 1012.9 0.0
16/09:30am 30.7 28.1 15.9 40 9.3 E 24 37 13 20 1014.1 1013.0 0.0
16/09:00am 29.6 28.1 16.4 45 8.3 E 19 33 10 18 1014.1 1013.0 0.0
16/08:30am 28.6 27.1 16.2 47 7.7 ENE 19 30 10 16 1014.0 1012.9 0.0
16/08:00am 28.1 27.5 17.6 53 6.7 E 17 24 9 13 1013.9 1012.8 0.0
16/07:30am 27.0 27.5 18.3 59 5.6 ENE 13 20 7 11 1013.7 1012.6 0.0
16/07:00am 25.8 27.0 18.2 63 4.8 ENE 9 13 5 7 1013.4 1012.3 0.0
16/06:30am 24.7 26.4 18.6 69 3.9 ENE 7 11 4 6 1013.2 1012.1 0.0
16/06:00am 22.3 23.8 17.7 75 2.9 E 6 7 3 4 1013.0 1011.9 0.0
16/05:30am 23.6 25.3 18.0 71 3.5 E 6 7 3 4 1012.9 1011.8 0.0
16/05:00am 24.1 25.6 18.1 69 3.8 E 7 13 4 7 1012.7 1011.6 0.0
16/04:30am 24.2 25.5 18.4 70 3.7 ENE 9 19 5 10 1012.6 1011.5 0.0
16/04:00am 23.9 25.7 18.3 71 3.5 ENE 6 9 3 5 1012.2 1011.1 0.0
16/03:30am 24.2 26.0 18.4 70 3.7 E 6 11 3 6 1012.2 1011.1 0.0
16/03:00am 24.7 26.0 18.4 68 4.0 E 9 13 5 7 1012.1 1011.0 0.0
16/02:30am 24.7 25.2 18.4 68 4.0 ENE 13 20 7 11 1012.3 1011.2 0.0
16/02:00am 24.8 26.0 18.3 67 4.1 E 9 17 5 9 1012.4 1011.3 0.0
16/01:30am 25.1 25.9 18.1 65 4.4 E 11 20 6 11 1012.7 1011.6 0.0
16/01:00am 25.2 24.7 17.9 64 4.6 ENE 17 28 9 15 1012.8 1011.7 0.0
16/12:30am 25.2 24.7 17.7 63 4.7 ENE 17 30 9 16 1013.0 1011.9 0.0
16/12:00am 25.2 25.1 17.9 64 4.6 E 15 30 8 16 1013.3 1012.2 0.0
 
Date/Time
EST
Temp
°C
App
Temp
°C
Dew
Point
°C
Rel
Hum
%
Delta-T
°C
Wind Press
QNH
hPa
Press
MSL
hPa
Rain since
9am
mm
Dir  Spd
km/h
Gust
km/h
Spd
kts
Gust
kts
15/11:30pm 25.3 25.1 17.7 62 4.8 ENE 15 24 8 13 1013.6 1012.5 0.0
15/11:00pm 25.5 25.4 17.9 63 4.8 ENE 15 28 8 15 1013.7 1012.6 0.0
15/10:30pm 25.6 25.6 18.0 63 4.8 ENE 15 26 8 14 1013.6 1012.5 0.0
15/10:00pm 25.9 25.1 18.1 62 5.0 ENE 19 30 10 16 1013.2 1012.1 0.0
15/09:30pm 25.9 25.4 18.6 64 4.7 ENE 19 32 10 17 1012.9 1011.8 0.0
15/09:00pm 25.8 25.8 19.0 66 4.4 ENE 17 30 9 16 1012.8 1011.7 0.0
15/08:30pm 25.8 25.8 19.0 66 4.4 NE 17 28 9 15 1012.9 1011.8 0.0
15/08:00pm 26.0 26.3 18.7 64 4.7 NE 15 28 8 15 1012.7 1011.6 0.0
15/07:30pm 26.4 25.5 16.9 56 5.9 NE 17 32 9 17 1012.2 1011.1 0.0
15/07:00pm 27.2 25.3 15.2 47 7.3 NE 19 33 10 18 1011.7 1010.6 0.0
15/06:30pm 28.0 25.9 13.5 41 8.7 ENE 17 30 9 16 1011.4 1010.3 0.0
15/06:00pm 28.9 26.6 14.7 42 8.7 ENE 20 33 11 18 1011.1 1010.0 0.0
15/05:30pm 29.8 27.7 14.7 39 9.2 ENE 19 33 10 18 1010.7 1009.6 0.0
15/05:00pm 31.3 28.2 14.4 35 10.4 ENE 24 39 13 21 1010.3 1009.3 0.0
15/04:30pm 32.3 29.7 14.9 35 10.8 ENE 22 35 12 19 1010.1 1009.0 0.0
15/04:00pm 33.5 31.2 14.0 30 12.0 E 19 30 10 16 1010.1 1009.0 0.0
15/03:30pm 33.7 30.9 12.7 28 12.7 E 19 28 10 15 1010.4 1009.4 0.0
15/03:00pm 33.3 30.2 12.3 28 12.6 E 20 30 11 16 1010.9 1009.8 0.0
15/02:30pm 34.0 30.9 13.5 29 12.5 E 22 39 12 21 1010.9 1009.8 0.0
15/02:00pm 32.4 29.4 12.6 30 11.9 ENE 20 33 11 18 1011.3 1010.2 0.0
15/01:30pm 33.6 31.3 14.1 30 12.0 ENE 19 30 10 16 1011.3 1010.2 0.0
15/01:00pm 32.7 30.3 13.8 31 11.5 ENE 19 39 10 21 1011.8 1010.7 0.0
15/12:30pm 32.4 29.5 14.1 33 11.2 NE 22 39 12 21 1012.2 1011.1 0.0
15/12:00pm 33.4 30.6 15.4 34 11.3 NE 24 33 13 18 1012.8 1011.7 0.0
15/11:30am 31.5 28.4 14.6 36 10.4 ENE 24 35 13 19 1013.1 1012.0 0.0
15/11:00am 31.4 29.2 15.0 37 10.1 ENE 20 28 11 15 1013.6 1012.5 0.0
15/10:30am 32.0 29.9 15.1 36 10.5 E 20 30 11 16 1014.2 1013.1 0.0
15/10:00am 30.9 29.7 16.1 41 9.3 E 17 28 9 15 1014.6 1013.5 0.0
15/09:30am 30.6 28.6 15.5 40 9.4 E 20 35 11 19 1014.9 1013.8 0.0
15/09:00am 29.5 28.4 16.3 45 8.3 ENE 17 26 9 14 1015.1 1014.0 0.0
15/08:30am 28.6 27.6 17.5 51 7.1 ENE 19 28 10 15 1015.0 1013.9 0.0
15/08:00am 27.2 27.3 17.4 55 6.2 ENE 13 20 7 11 1014.6 1013.5 0.0
15/07:30am 27.4 28.3 17.6 55 6.2 E 9 15 5 8 1014.6 1013.5 0.0
15/07:00am 26.3 27.4 17.9 60 5.3 E 9 17 5 9 1014.1 1013.0 0.0
15/06:30am 24.3 27.4 18.7 71 3.6 CALM 0 7 0 4 1013.9 1012.8 0.0
15/06:00am 22.4 24.6 18.4 78 2.5 S 4 7 2 4 1013.4 1012.3 0.0
15/05:30am 22.4 25.3 18.2 77 2.6 CALM 0 0 0 0 1012.9 1011.8 0.0
15/05:00am 22.9 25.6 17.8 73 3.2 CALM 0 0 0 0 1012.3 1011.2 0.0
15/04:30am 23.5 26.0 18.2 72 3.3 NE 2 7 1 4 1012.0 1010.9 0.0
15/04:00am 24.2 25.8 17.9 68 4.0 ESE 6 9 3 5 1012.0 1010.9 0.0
15/03:30am 24.7 26.3 18.2 67 4.1 E 7 13 4 7 1011.7 1010.6 0.0
15/03:00am 24.5 26.1 19.1 72 3.5 NE 9 15 5 8 1011.3 1010.2 0.0
15/02:30am 24.6 26.5 19.0 71 3.6 ENE 7 13 4 7 1011.4 1010.3 0.0
15/02:00am 24.7 26.9 19.1 71 3.6 ENE 6 15 3 8 1011.4 1010.3 0.0
15/01:30am 25.0 26.0 19.4 71 3.6 NE 13 22 7 12 1011.4 1010.3 0.0
15/01:00am 25.0 26.0 19.4 71 3.6 NE 13 20 7 11 1011.7 1010.6 0.0
15/12:30am 25.2 26.0 19.1 69 3.9 ENE 13 22 7 12 1011.8 1010.7 0.0
15/12:00am 25.2 26.1 19.3 70 3.8 ENE 13 24 7 13 1011.8 1010.7 0.0
 
Date/Time
EST
Temp
°C
App
Temp
°C
Dew
Point
°C
Rel
Hum
%
Delta-T
°C
Wind Press
QNH
hPa
Press
MSL
hPa
Rain since
9am
mm
Dir  Spd
km/h
Gust
km/h
Spd
kts
Gust
kts
14/11:30pm 25.2 26.0 19.1 69 3.9 ENE 13 24 7 13 1011.8 1010.7 0.0
14/11:00pm 25.2 25.7 19.3 70 3.8 ENE 15 28 8 15 1012.1 1011.0 0.0
14/10:30pm 25.2 25.5 19.6 71 3.6 NE 17 28 9 15 1012.1 1011.0 0.0
14/10:00pm 25.1 25.4 19.5 71 3.6 NE 17 26 9 14 1012.0 1010.9 0.0
14/09:30pm 25.3 25.1 19.4 70 3.8 NE 19 28 10 15 1011.9 1010.8 0.0
14/09:00pm 25.3 25.1 19.4 70 3.8 ENE 19 39 10 21 1011.9 1010.8 0.0
14/08:30pm 25.2 26.3 19.6 71 3.6 NE 13 22 7 12 1011.9 1010.8 0.0
14/08:00pm 25.3 26.3 19.4 70 3.8 NE 13 22 7 12 1011.8 1010.7 0.0
14/07:30pm 25.6 25.8 19.3 68 4.1 NE 17 28 9 15 1011.5 1010.4 0.0
14/07:00pm 26.1 25.1 18.8 64 4.7 NE 22 35 12 19 1011.3 1010.2 0.0
14/06:30pm 27.0 27.0 18.0 58 5.7 NE 15 24 8 13 1011.0 1009.9 0.0
14/06:00pm 28.2 27.1 17.7 53 6.7 NE 20 33 11 18 1010.7 1009.6 0.0
14/05:30pm 29.3 27.6 17.2 48 7.7 NE 22 33 12 18 1010.2 1009.2 0.0
14/05:00pm 30.2 27.6 15.9 42 8.9 ENE 24 35 13 19 1009.9 1008.8 0.0
14/04:30pm 31.1 27.5 14.3 36 10.3 ENE 26 39 14 21 1009.6 1008.5 0.0
14/04:00pm 32.3 29.9 15.3 35 10.6 NE 22 35 12 19 1009.1 1008.0 0.0
14/03:30pm 33.1 31.9 15.1 33 11.2 ENE 15 24 8 13 1009.3 1008.2 0.0
14/03:00pm 33.8 31.6 14.8 32 11.8 SE 20 30 11 16 1009.4 1008.3 0.0
14/02:30pm 32.9 30.6 15.8 35 10.8 ENE 22 32 12 17 1009.4 1008.3 0.0
14/02:00pm 32.7 29.6 15.7 36 10.7 NE 26 37 14 20 1009.6 1008.5 0.0
14/01:30pm 32.4 29.2 15.4 36 10.6 NE 26 44 14 24 1010.0 1008.9 0.0
14/01:00pm 32.8 31.1 16.2 37 10.5 NE 20 35 11 19 1010.8 1009.7 0.0
14/12:30pm 32.5 29.9 15.9 36 10.4 NNE 24 35 13 19 1010.9 1009.8 0.0
14/12:00pm 31.9 30.0 15.8 38 10.1 NE 20 32 11 17 1011.7 1010.6 0.0
14/11:30am 31.0 28.2 15.4 38 9.7 NE 24 37 13 20 1011.8 1010.7 0.0
14/11:00am 32.9 31.0 15.8 35 10.8 NE 20 30 11 16 1012.2 1011.1 0.0
14/10:30am 31.1 29.5 15.9 40 9.5 ENE 19 30 10 16 1013.0 1011.9 0.0
14/10:00am 30.3 29.5 16.0 42 8.9 E 15 26 8 14 1013.4 1012.3 0.0
14/09:30am 29.9 28.8 16.3 43 8.5 E 17 24 9 13 1013.8 1012.7 0.0
14/09:00am 29.4 28.0 16.6 46 8.0 ENE 19 28 10 15 1013.8 1012.7 0.0
14/08:30am 28.4 27.9 17.0 50 7.2 E 15 26 8 14 1013.6 1012.5 0.0
14/08:00am 27.5 27.3 16.8 52 6.7 E 13 20 7 11 1013.5 1012.4 0.0
14/07:30am 26.4 27.7 17.2 57 5.8 E 6 11 3 6 1013.3 1012.2 0.0
14/07:00am 25.1 27.4 17.8 64 4.6 S 2 6 1 3 1013.1 1012.0 0.0
14/06:30am 22.9 25.9 18.4 76 2.8 CALM 0 6 0 3 1012.5 1011.4 0.0
14/06:00am 21.2 23.8 17.4 79 2.4 CALM 0 0 0 0 1012.2 1011.1 0.0
14/05:30am 21.6 24.2 17.6 78 2.5 CALM 0 0 0 0 1011.9 1010.8 0.0
14/05:00am 21.6 24.1 17.2 76 2.7 CALM 0 0 0 0 1011.4 1010.3 0.0
14/04:30am 22.8 25.5 17.7 73 3.2 CALM 0 6 0 3 1011.2 1010.1 0.0
14/04:00am 23.2 25.9 17.7 71 3.4 CALM 0 0 0 0 1011.0 1009.9 0.0
14/03:30am 24.0 25.5 18.0 69 3.8 E 7 11 4 6 1010.8 1009.7 0.0
14/03:00am 24.3 25.5 18.2 68 3.9 E 9 11 5 6 1010.5 1009.5 0.0
14/02:30am 23.9 26.1 18.3 71 3.5 NE 4 7 2 4 1010.5 1009.5 0.0
14/02:00am 24.0 26.7 18.6 72 3.4 NE 2 7 1 4 1011.2 1010.1 0.0
14/01:30am 24.3 25.6 18.5 70 3.7 SSW 9 11 5 6 1011.3 1010.2 0.0
14/01:00am 24.8 26.9 19.0 70 3.7 ENE 6 9 3 5 1011.1 1010.0 0.0
14/12:30am 25.0 25.8 19.1 70 3.8 NE 13 19 7 10 1011.0 1009.9 0.0
14/12:00am 25.0 25.7 18.9 69 3.9 NE 13 24 7 13 1011.0 1009.9 0.0

Other Formats:

Comma delimited format used in spreadsheet applications
http://www.bom.gov.au/fwo/IDQ60801/IDQ60801.94183.axf

JavaScript Object Notation format (JSON) in row-major order
http://www.bom.gov.au/fwo/IDQ60801/IDQ60801.94183.json